Time;durP1;ratioP1;P1;durP2;ratioP2;P2;SDS_P1;SDS_P2;PMS_P1;PMS_P2;Temp;Humidity;BMP_temperature;BMP_pressure;BME280_temperature;BME280_humidity;BME280_pressure;Samples;Min_cycle;Max_cycle;Signal;HPM_P1;HPM_P2
2020/12/12 00:00:41;;;;;;;56.25;26.70;;;2.80;93.20;;;;;;4940488;28;20082;-67
2020/12/12 00:03:06;;;;;;;57.55;27.50;;;2.80;93.10;;;;;;4945820;29;20034;-67
2020/12/12 00:05:32;;;;;;;53.08;27.85;;;2.80;93.20;;;;;;4949043;28;20023;-67
2020/12/12 00:07:58;;;;;;;61.08;27.60;;;2.80;93.20;;;;;;4947296;28;20106;-67
2020/12/12 00:10:26;;;;;;;62.85;26.05;;;2.80;93.30;;;;;;4946037;28;20033;-67
2020/12/12 00:12:51;;;;;;;60.22;26.45;;;2.80;93.10;;;;;;4944433;28;20368;-67
2020/12/12 00:15:17;;;;;;;56.80;26.70;;;2.80;93.10;;;;;;4936158;28;20036;-67
2020/12/12 00:17:44;;;;;;;57.30;27.67;;;2.80;93.00;;;;;;4945817;29;20110;-67
2020/12/12 00:20:10;;;;;;;59.70;26.38;;;2.80;93.10;;;;;;4947286;28;20077;-67
2020/12/12 00:22:35;;;;;;;54.50;26.58;;;2.80;93.00;;;;;;4950629;28;20410;-67
2020/12/12 00:25:01;;;;;;;58.28;27.38;;;2.80;93.10;;;;;;4944060;28;20467;-66
2020/12/12 00:27:27;;;;;;;59.58;27.45;;;2.80;93.10;;;;;;4932106;29;20104;-66
2020/12/12 00:29:52;;;;;;;56.75;26.55;;;2.80;93.10;;;;;;4934027;28;20093;-65
2020/12/12 00:32:18;;;;;;;59.22;26.48;;;2.80;93.00;;;;;;4937531;29;20123;-66
2020/12/12 00:34:43;;;;;;;56.85;25.10;;;2.70;93.10;;;;;;4939604;29;20407;-65
2020/12/12 00:37:09;;;;;;;52.92;28.42;;;2.70;93.10;;;;;;4943345;29;20030;-66
2020/12/12 00:39:34;;;;;;;54.40;26.30;;;2.80;93.00;;;;;;4949799;28;20042;-66
2020/12/12 00:42:00;;;;;;;59.63;26.65;;;2.70;93.00;;;;;;4946521;29;20440;-66
2020/12/12 00:44:26;;;;;;;50.03;27.08;;;2.80;93.10;;;;;;4946593;28;20038;-66
2020/12/12 00:46:52;;;;;;;49.50;22.45;;;2.70;93.10;;;;;;4945317;28;20120;-66
2020/12/12 00:49:17;;;;;;;54.88;26.98;;;2.80;93.00;;;;;;4946782;28;20575;-66
2020/12/12 00:51:43;;;;;;;54.95;25.65;;;2.70;93.10;;;;;;4942729;28;20135;-66
2020/12/12 00:54:08;;;;;;;54.58;26.98;;;2.70;93.00;;;;;;4946642;28;20039;-66
2020/12/12 00:56:34;;;;;;;50.45;25.48;;;2.70;93.10;;;;;;4947808;28;20035;-66
2020/12/12 00:58:59;;;;;;;57.42;28.83;;;2.70;93.20;;;;;;4946031;29;20066;-66
2020/12/12 01:01:25;;;;;;;53.00;26.30;;;2.70;92.90;;;;;;4944572;29;20375;-66
2020/12/12 01:03:51;;;;;;;61.22;27.83;;;2.70;93.00;;;;;;4929887;28;20111;-66
2020/12/12 01:06:18;;;;;;;53.78;25.48;;;2.70;93.10;;;;;;4927600;29;20050;-67
2020/12/12 01:08:45;;;;;;;51.20;26.33;;;2.70;93.00;;;;;;4937398;29;20075;-66
2020/12/12 01:11:12;;;;;;;51.83;26.52;;;2.70;92.90;;;;;;4937623;28;20031;-66
2020/12/12 01:13:38;;;;;;;52.22;27.02;;;2.70;92.80;;;;;;4945133;28;20042;-68
2020/12/12 01:16:08;;;;;;;50.25;25.50;;;2.70;93.00;;;;;;4927253;28;20113;-66
2020/12/12 01:18:34;;;;;;;56.35;27.40;;;2.70;92.90;;;;;;4925681;28;20276;-66
2020/12/12 01:21:00;;;;;;;55.00;28.73;;;2.70;93.00;;;;;;4931322;29;20031;-66
2020/12/12 01:23:26;;;;;;;57.55;26.48;;;2.70;93.00;;;;;;4946338;28;20019;-66
2020/12/12 01:25:52;;;;;;;54.53;27.83;;;2.70;92.90;;;;;;4933835;28;20515;-66
2020/12/12 01:28:19;;;;;;;53.67;27.33;;;2.70;93.00;;;;;;4927561;29;20089;-66
2020/12/12 01:30:45;;;;;;;55.00;26.55;;;2.70;93.10;;;;;;5035454;28;20043;-66
2020/12/12 01:33:10;;;;;;;54.88;28.42;;;2.70;93.20;;;;;;4973048;28;20042;-66
2020/12/12 01:35:36;;;;;;;54.08;25.90;;;2.70;93.10;;;;;;4944123;29;20073;-66
2020/12/12 01:38:01;;;;;;;49.72;26.67;;;2.60;93.10;;;;;;4934764;28;20089;-66
2020/12/12 01:40:27;;;;;;;48.33;24.05;;;2.70;93.10;;;;;;4941244;28;20544;-66
2020/12/12 01:42:53;;;;;;;50.90;27.73;;;2.70;92.80;;;;;;4943927;29;20032;-66
2020/12/12 01:45:18;;;;;;;53.17;25.42;;;2.70;93.00;;;;;;4946094;28;20439;-65
2020/12/12 01:47:44;;;;;;;51.85;26.33;;;2.60;92.90;;;;;;4947570;28;20172;-66
2020/12/12 01:50:09;;;;;;;55.13;27.70;;;2.70;93.00;;;;;;4940774;28;20027;-66
2020/12/12 01:52:36;;;;;;;51.45;27.20;;;2.60;93.00;;;;;;4946256;29;20126;-66
2020/12/12 01:55:03;;;;;;;51.90;26.92;;;2.60;92.90;;;;;;4944545;29;20056;-66
2020/12/12 01:57:28;;;;;;;54.63;26.83;;;2.60;92.90;;;;;;4945511;29;20027;-66
2020/12/12 01:59:54;;;;;;;50.08;26.42;;;2.60;93.00;;;;;;4942022;29;20062;-66
2020/12/12 02:02:21;;;;;;;55.10;28.05;;;2.60;93.10;;;;;;4946314;28;20168;-66
2020/12/12 02:04:53;;;;;;;54.35;26.67;;;2.60;93.10;;;;;;4947895;28;20034;-66
2020/12/12 02:07:23;;;;;;;57.00;26.67;;;2.60;92.80;;;;;;4945451;28;20157;-66
2020/12/12 02:09:50;;;;;;;46.55;25.38;;;2.60;92.80;;;;;;4945691;28;20106;-66
2020/12/12 02:12:17;;;;;;;53.03;27.13;;;2.60;92.90;;;;;;4938715;28;20588;-66
2020/12/12 02:14:43;;;;;;;54.92;26.25;;;2.60;92.90;;;;;;4926400;28;20036;-66
2020/12/12 02:17:10;;;;;;;49.83;25.17;;;2.60;93.10;;;;;;4934309;29;20084;-66
2020/12/12 02:19:36;;;;;;;54.33;27.05;;;2.60;93.10;;;;;;4930613;28;20042;-66
2020/12/12 02:22:05;;;;;;;44.72;23.50;;;2.60;93.00;;;;;;5045917;28;20032;-66
2020/12/12 02:24:33;;;;;;;48.25;24.95;;;2.50;92.80;;;;;;5043226;28;20040;-65
2020/12/12 02:27:02;;;;;;;54.47;26.45;;;2.60;93.10;;;;;;4942471;28;20057;-66
2020/12/12 02:29:40;;;;;;;49.47;25.80;;;2.60;93.00;;;;;;4927159;29;20027;-66
2020/12/12 02:32:07;;;;;;;53.67;25.83;;;2.50;93.10;;;;;;4925835;29;20034;-66
2020/12/12 02:34:33;;;;;;;57.72;26.27;;;2.50;93.10;;;;;;4940219;28;20093;-66
2020/12/12 02:36:58;;;;;;;51.67;25.85;;;2.50;93.00;;;;;;4945337;28;20031;-66
2020/12/12 02:39:24;;;;;;;56.05;25.85;;;2.50;93.10;;;;;;4936704;28;20159;-66
2020/12/12 02:41:50;;;;;;;43.92;21.48;;;2.40;93.00;;;;;;4931674;29;20035;-66
2020/12/12 02:44:15;;;;;;;55.50;26.52;;;2.40;92.90;;;;;;4940287;28;20045;-66
2020/12/12 02:46:41;;;;;;;53.28;25.08;;;2.50;93.10;;;;;;4931754;28;20063;-66
2020/12/12 02:49:06;;;;;;;52.33;26.73;;;2.40;93.00;;;;;;4929489;28;20024;-66
2020/12/12 02:51:32;;;;;;;54.17;25.85;;;2.40;92.90;;;;;;4933441;28;20044;-66
2020/12/12 02:53:58;;;;;;;50.65;24.77;;;2.40;93.00;;;;;;4936284;28;20122;-66
2020/12/12 02:56:24;;;;;;;51.10;25.58;;;2.40;92.90;;;;;;4931592;28;20043;-66
2020/12/12 02:58:50;;;;;;;46.88;25.50;;;2.40;93.00;;;;;;4929854;28;20036;-66
2020/12/12 03:01:16;;;;;;;49.05;25.98;;;2.40;93.00;;;;;;4931287;28;20081;-66
2020/12/12 03:03:42;;;;;;;58.28;26.80;;;2.40;92.90;;;;;;4932573;28;20469;-65
2020/12/12 03:06:07;;;;;;;55.67;27.13;;;2.40;93.00;;;;;;4929150;29;20095;-66
2020/12/12 03:08:33;;;;;;;55.22;27.10;;;2.40;93.00;;;;;;4938868;28;20110;-66
2020/12/12 03:10:58;;;;;;;55.13;26.35;;;2.40;93.10;;;;;;4960699;28;20087;-64
2020/12/12 03:13:24;;;;;;;53.60;26.13;;;2.40;93.00;;;;;;4925956;29;20126;-66
2020/12/12 03:15:50;;;;;;;48.40;25.55;;;2.30;93.10;;;;;;4932553;28;20300;-66
2020/12/12 03:18:15;;;;;;;57.30;26.33;;;2.30;93.10;;;;;;4941059;28;20028;-66
2020/12/12 03:20:41;;;;;;;52.75;25.23;;;2.30;93.10;;;;;;4938699;28;20094;-66
2020/12/12 03:23:07;;;;;;;49.47;25.17;;;2.30;93.00;;;;;;4940702;29;20024;-66
2020/12/12 03:25:32;;;;;;;53.47;25.27;;;2.20;93.00;;;;;;4939777;28;20044;-65
2020/12/12 03:27:58;;;;;;;54.58;26.23;;;2.20;93.10;;;;;;4940888;28;20039;-66
2020/12/12 03:30:23;;;;;;;53.03;23.58;;;2.20;93.20;;;;;;4937530;28;20036;-66
2020/12/12 03:32:52;;;;;;;51.42;25.30;;;2.20;93.10;;;;;;4932680;28;20034;-65
2020/12/12 03:35:17;;;;;;;53.33;25.70;;;2.20;93.10;;;;;;4939043;28;20024;-66
2020/12/12 03:37:43;;;;;;;51.08;25.95;;;2.20;93.00;;;;;;4925162;28;20511;-66
2020/12/12 03:40:09;;;;;;;51.60;25.70;;;2.10;93.10;;;;;;4929877;28;20401;-66
2020/12/12 03:42:34;;;;;;;49.67;24.38;;;2.10;93.00;;;;;;4939061;28;20161;-66
2020/12/12 03:45:00;;;;;;;50.17;27.33;;;2.10;93.10;;;;;;4949240;28;20034;-65
2020/12/12 03:47:25;;;;;;;57.67;26.77;;;2.10;93.20;;;;;;4935968;28;20031;-66
2020/12/12 03:49:51;;;;;;;49.83;25.95;;;2.10;93.10;;;;;;4940116;28;20216;-66
2020/12/12 03:52:16;;;;;;;36.67;19.27;;;2.10;93.20;;;;;;4940475;28;20438;-66
2020/12/12 03:54:42;;;;;;;60.35;26.63;;;2.10;93.20;;;;;;4933283;28;20028;-66
2020/12/12 03:57:08;;;;;;;54.75;25.17;;;2.10;93.20;;;;;;4931778;28;20476;-66
2020/12/12 03:59:34;;;;;;;51.28;26.50;;;2.10;93.30;;;;;;4939627;28;20032;-66
2020/12/12 04:02:00;;;;;;;51.22;25.27;;;2.10;93.30;;;;;;4961377;28;20040;-66
2020/12/12 04:04:25;;;;;;;51.45;26.30;;;2.10;93.20;;;;;;4932957;28;20337;-66
2020/12/12 04:06:51;;;;;;;48.92;26.27;;;2.10;93.20;;;;;;4931425;28;20110;-65
2020/12/12 04:09:17;;;;;;;51.30;25.25;;;2.10;93.30;;;;;;4932148;28;20154;-65
2020/12/12 04:11:43;;;;;;;46.65;26.30;;;2.10;93.30;;;;;;4937236;28;20447;-66
2020/12/12 04:14:08;;;;;;;56.90;27.23;;;2.00;93.30;;;;;;4931794;29;20256;-66
2020/12/12 04:16:34;;;;;;;51.28;25.67;;;2.10;93.20;;;;;;4934802;28;20223;-65
2020/12/12 04:18:59;;;;;;;55.42;26.75;;;2.10;93.40;;;;;;4952956;28;20114;-67
2020/12/12 04:21:25;;;;;;;54.63;27.73;;;2.00;93.30;;;;;;4958857;28;20039;-67
2020/12/12 04:23:51;;;;;;;49.47;25.92;;;2.00;93.30;;;;;;4935529;28;20440;-66
2020/12/12 04:26:17;;;;;;;53.15;26.70;;;2.00;93.30;;;;;;4973657;28;20131;-66
2020/12/12 04:28:42;;;;;;;47.97;24.98;;;2.00;93.30;;;;;;4945039;29;20120;-66
2020/12/12 04:31:08;;;;;;;51.03;26.42;;;2.00;93.30;;;;;;4939178;28;20035;-67
2020/12/12 04:33:35;;;;;;;47.13;25.63;;;2.00;93.40;;;;;;4941240;28;20440;-66
2020/12/12 04:36:01;;;;;;;53.35;26.20;;;2.00;93.40;;;;;;4954727;28;20029;-66
2020/12/12 04:38:29;;;;;;;61.42;27.52;;;2.00;93.40;;;;;;4951022;28;20087;-67
2020/12/12 04:40:57;;;;;;;56.30;27.60;;;2.00;93.40;;;;;;4950237;28;20058;-67
2020/12/12 04:43:25;;;;;;;54.63;26.85;;;1.90;93.40;;;;;;4946854;28;20482;-66
2020/12/12 04:45:51;;;;;;;48.45;25.85;;;1.90;93.40;;;;;;4944587;29;20049;-65
2020/12/12 04:48:16;;;;;;;60.92;27.65;;;1.80;93.40;;;;;;4928760;29;20108;-66
2020/12/12 04:50:42;;;;;;;53.65;27.30;;;1.90;93.40;;;;;;4944897;28;20349;-66
2020/12/12 04:53:14;;;;;;;60.28;28.13;;;1.90;93.40;;;;;;4952247;28;20096;-67
2020/12/12 04:55:46;;;;;;;55.50;25.98;;;1.80;93.30;;;;;;4935112;28;20028;-65
2020/12/12 04:58:20;;;;;;;58.75;27.90;;;1.80;93.40;;;;;;4927552;29;20098;-66
2020/12/12 05:00:49;;;;;;;54.28;27.10;;;1.80;93.50;;;;;;4931247;28;20024;-67
2020/12/12 05:03:18;;;;;;;61.70;28.75;;;1.80;93.50;;;;;;4932527;28;20364;-66
2020/12/12 05:05:44;;;;;;;57.50;27.05;;;1.80;93.60;;;;;;4932717;28;20056;-66
2020/12/12 05:08:10;;;;;;;56.40;27.65;;;1.80;93.60;;;;;;4930461;28;20434;-67
2020/12/12 05:10:41;;;;;;;56.15;27.60;;;1.80;93.60;;;;;;4939779;28;20046;-67
2020/12/12 05:13:20;;;;;;;57.67;27.65;;;1.80;93.60;;;;;;4941458;28;20039;-66
2020/12/12 05:15:47;;;;;;;57.22;28.08;;;1.80;93.50;;;;;;4931455;29;20031;-66
2020/12/12 05:18:13;;;;;;;56.83;27.10;;;1.80;93.50;;;;;;4933927;28;20085;-66
2020/12/12 05:20:40;;;;;;;50.83;27.17;;;1.80;93.50;;;;;;4939184;28;20028;-66
2020/12/12 05:23:15;;;;;;;56.92;27.88;;;1.80;93.60;;;;;;4943636;29;20153;-66
2020/12/12 05:25:43;;;;;;;61.35;27.88;;;1.80;93.60;;;;;;4943022;28;20065;-66
2020/12/12 05:28:10;;;;;;;53.53;27.40;;;1.80;93.50;;;;;;5004619;28;20446;-66
2020/12/12 05:30:37;;;;;;;54.05;26.88;;;1.80;93.60;;;;;;4930216;28;20138;-66
2020/12/12 05:33:08;;;;;;;58.25;27.95;;;1.70;93.50;;;;;;4934313;28;20043;-67
2020/12/12 05:35:34;;;;;;;57.55;27.85;;;1.80;93.70;;;;;;4945986;28;20437;-66
2020/12/12 05:38:01;;;;;;;59.28;28.50;;;1.70;93.60;;;;;;4941378;28;20062;-66
2020/12/12 05:40:27;;;;;;;57.13;26.02;;;1.70;93.60;;;;;;4934123;29;20035;-66
2020/12/12 05:42:52;;;;;;;54.35;24.92;;;1.70;93.60;;;;;;4934395;29;20035;-66
2020/12/12 05:45:18;;;;;;;61.28;29.15;;;1.70;93.70;;;;;;4943402;28;20027;-66
2020/12/12 05:47:44;;;;;;;58.75;27.00;;;1.70;93.70;;;;;;4937523;28;20038;-66
2020/12/12 05:50:10;;;;;;;60.08;28.50;;;1.70;93.70;;;;;;4935381;28;20047;-66
2020/12/12 05:52:43;;;;;;;60.58;28.08;;;1.70;93.70;;;;;;4935910;29;20032;-66
2020/12/12 05:55:09;;;;;;;60.45;28.30;;;1.70;93.70;;;;;;4932135;28;20101;-67
2020/12/12 05:57:37;;;;;;;55.90;27.58;;;1.70;93.70;;;;;;4935046;29;20411;-66
2020/12/12 06:00:06;;;;;;;58.80;26.48;;;1.70;93.70;;;;;;4938790;28;20031;-66
2020/12/12 06:02:36;;;;;;;60.45;28.30;;;1.70;93.60;;;;;;4937010;28;20080;-67
2020/12/12 06:05:06;;;;;;;58.63;27.98;;;1.80;93.80;;;;;;4937145;28;20486;-66
2020/12/12 06:07:33;;;;;;;59.38;26.80;;;1.80;93.70;;;;;;4928244;28;20166;-66
2020/12/12 06:10:04;;;;;;;58.35;28.20;;;1.80;93.80;;;;;;4930021;29;20257;-66
2020/12/12 06:12:31;;;;;;;59.05;27.17;;;1.80;93.80;;;;;;4930170;29;20028;-66
2020/12/12 06:14:58;;;;;;;57.78;27.58;;;1.70;93.60;;;;;;4935070;28;20050;-66
2020/12/12 06:17:43;;;;;;;59.88;27.30;;;1.70;93.70;;;;;;4930027;28;20205;-65
2020/12/12 06:20:14;;;;;;;58.28;26.98;;;1.70;93.80;;;;;;4956822;28;20043;-66
2020/12/12 06:22:42;;;;;;;59.78;29.25;;;1.80;93.90;;;;;;4944234;28;20114;-66
2020/12/12 06:25:13;;;;;;;57.08;28.55;;;1.80;93.80;;;;;;4932761;28;20187;-66
2020/12/12 06:27:44;;;;;;;56.38;25.73;;;1.80;93.80;;;;;;4938380;28;20089;-66
2020/12/12 06:37:38;;;;;;;65.60;30.75;;;1.70;93.80;;;;;;5661070;22;20374;-66
2020/12/12 06:42:45;;;;;;;66.90;28.17;;;1.80;93.70;;;;;;5505864;22;20026;-66
2020/12/12 06:45:13;;;;;;;54.85;26.90;;;1.70;93.70;;;;;;5369778;22;20108;-67
2020/12/12 06:47:51;;;;;;;58.25;28.27;;;1.80;93.80;;;;;;5838530;22;20059;-66
2020/12/12 06:50:25;;;;;;;62.13;30.05;;;1.80;93.90;;;;;;5119903;28;20466;-64
2020/12/12 06:52:52;;;;;;;60.85;29.85;;;1.80;94.00;;;;;;5119719;27;20027;-68
2020/12/12 06:55:20;;;;;;;66.72;30.10;;;1.80;94.20;;;;;;5120898;27;20088;-67
2020/12/12 06:57:47;;;;;;;67.50;30.20;;;1.70;94.40;;;;;;5121693;27;20324;-67
2020/12/12 07:00:30;;;;;;;65.95;29.30;;;1.70;94.50;;;;;;5121147;27;20056;-67
2020/12/12 07:03:04;;;;;;;67.60;29.38;;;1.70;94.60;;;;;;5107241;28;20464;-67
2020/12/12 07:05:33;;;;;;;63.28;30.35;;;1.70;94.60;;;;;;5121738;27;20042;-67
2020/12/12 07:08:05;;;;;;;61.97;30.63;;;1.70;94.60;;;;;;5122877;27;20031;-67
2020/12/12 07:10:32;;;;;;;57.95;29.08;;;1.70;94.60;;;;;;5120962;27;20023;-67
2020/12/12 07:13:02;;;;;;;67.38;31.77;;;1.70;94.70;;;;;;5103275;28;20050;-67
2020/12/12 07:15:29;;;;;;;70.00;30.00;;;1.70;94.80;;;;;;5124832;27;20462;-67
2020/12/12 07:17:55;;;;;;;61.38;30.42;;;1.70;94.80;;;;;;5124297;27;20027;-67
2020/12/12 07:20:20;;;;;;;63.38;31.20;;;1.70;94.70;;;;;;5122307;28;20050;-67
2020/12/12 07:22:49;;;;;;;70.50;30.27;;;1.70;94.80;;;;;;5125691;27;20023;-68
2020/12/12 07:25:14;;;;;;;62.13;29.65;;;1.80;94.80;;;;;;5121313;27;20076;-69
2020/12/12 07:27:40;;;;;;;66.82;31.00;;;1.80;94.80;;;;;;5121831;27;20096;-67
2020/12/12 07:30:05;;;;;;;66.80;31.35;;;1.70;94.70;;;;;;5119332;27;20423;-66
2020/12/12 07:32:31;;;;;;;64.03;30.05;;;1.70;94.80;;;;;;5109627;28;20020;-67
2020/12/12 07:34:58;;;;;;;69.43;31.63;;;1.70;94.90;;;;;;5120145;27;20106;-67
2020/12/12 07:37:24;;;;;;;65.38;29.63;;;1.70;94.90;;;;;;5106484;28;20260;-66
2020/12/12 07:39:51;;;;;;;66.45;31.35;;;1.70;95.00;;;;;;5120358;28;20047;-67
2020/12/12 07:42:16;;;;;;;66.55;30.77;;;1.70;95.10;;;;;;5113558;28;20039;-67
2020/12/12 07:47:47;;;;;;;61.25;29.52;;;1.80;95.30;;;;;;5035219;28;20041;-66
2020/12/12 07:50:13;;;;;;;66.43;31.58;;;1.70;95.20;;;;;;5110296;27;20036;-67
2020/12/12 07:52:41;;;;;;;70.75;29.45;;;1.70;95.30;;;;;;5110942;27;20055;-67
2020/12/12 07:55:09;;;;;;;65.18;30.58;;;1.70;95.30;;;;;;5109151;27;20042;-68
2020/12/12 07:57:38;;;;;;;63.65;30.45;;;1.70;95.40;;;;;;5111129;27;20027;-68
2020/12/12 08:00:11;;;;;;;67.35;30.50;;;1.70;95.40;;;;;;5107374;27;20262;-67
2020/12/12 08:02:38;;;;;;;72.00;30.88;;;1.70;95.50;;;;;;5107266;28;20027;-66
2020/12/12 08:05:05;;;;;;;66.95;30.50;;;1.70;95.50;;;;;;5108126;27;20127;-66
2020/12/12 08:07:33;;;;;;;67.65;31.42;;;1.70;95.70;;;;;;5103462;28;20444;-68
2020/12/12 08:10:00;;;;;;;71.40;31.75;;;1.70;95.70;;;;;;5109880;27;20106;-67
2020/12/12 08:12:29;;;;;;;72.80;32.70;;;1.70;95.70;;;;;;5107151;27;20027;-67
2020/12/12 08:15:09;;;;;;;66.25;30.88;;;1.70;95.80;;;;;;5113003;27;20048;-67
2020/12/12 08:17:35;;;;;;;65.05;30.15;;;1.70;95.80;;;;;;5107936;27;20046;-67
2020/12/12 08:20:02;;;;;;;64.40;30.45;;;1.70;96.00;;;;;;5109350;27;20015;-67
2020/12/12 08:22:28;;;;;;;66.35;30.38;;;1.70;95.90;;;;;;5111230;27;20031;-67
2020/12/12 08:24:55;;;;;;;71.07;31.02;;;1.70;95.90;;;;;;5085231;28;20049;-67
2020/12/12 08:27:28;;;;;;;70.68;31.77;;;1.70;95.90;;;;;;5103654;27;20036;-68
2020/12/12 08:29:58;;;;;;;69.63;29.60;;;1.70;96.00;;;;;;5107644;27;20023;-66
2020/12/12 08:32:32;;;;;;;59.63;31.25;;;1.70;96.00;;;;;;5108402;27;20115;-67
2020/12/12 08:35:11;;;;;;;71.95;30.60;;;1.80;95.80;;;;;;5107915;27;20458;-67
2020/12/12 08:37:37;;;;;;;63.50;30.58;;;1.80;95.80;;;;;;5106074;27;20051;-67
2020/12/12 08:40:08;;;;;;;66.75;29.88;;;1.80;95.70;;;;;;5108575;28;20534;-66
2020/12/12 08:42:34;;;;;;;67.60;30.17;;;1.80;95.60;;;;;;5107799;27;20034;-67
2020/12/12 08:45:17;;;;;;;58.75;27.23;;;1.90;95.80;;;;;;5088627;28;20035;-67
2020/12/12 08:47:43;;;;;;;60.63;29.20;;;1.80;95.50;;;;;;5099914;28;20051;-67
2020/12/12 08:50:08;;;;;;;57.80;29.00;;;1.90;95.60;;;;;;5111865;27;20094;-67
2020/12/12 08:52:34;;;;;;;60.22;29.38;;;1.90;95.60;;;;;;5106994;28;20020;-67
2020/12/12 08:55:01;;;;;;;65.28;31.23;;;1.90;95.50;;;;;;5108796;27;20023;-67
2020/12/12 08:57:27;;;;;;;61.95;29.83;;;1.90;95.50;;;;;;5106988;28;20081;-67
2020/12/12 08:59:59;;;;;;;63.50;27.88;;;2.00;95.50;;;;;;5103726;28;20031;-68
2020/12/12 09:02:26;;;;;;;61.67;30.17;;;2.00;95.30;;;;;;5111605;27;20027;-67
2020/12/12 09:05:11;;;;;;;60.45;30.30;;;2.00;95.40;;;;;;5118775;27;20073;-67
2020/12/12 09:07:38;;;;;;;59.50;27.15;;;2.00;95.30;;;;;;5110310;27;20035;-67
2020/12/12 09:10:12;;;;;;;60.05;29.75;;;2.00;95.20;;;;;;5105295;28;20020;-68
2020/12/12 09:12:51;;;;;;;61.22;28.83;;;2.10;95.30;;;;;;5102176;27;20028;-68
2020/12/12 09:15:16;;;;;;;62.63;28.95;;;2.00;95.10;;;;;;5107343;27;20099;-67
2020/12/12 09:17:42;;;;;;;59.55;27.50;;;2.10;95.10;;;;;;5098460;27;20518;-66
2020/12/12 09:20:08;;;;;;;60.17;28.73;;;2.10;95.00;;;;;;5094867;27;20172;-66
2020/12/12 09:22:35;;;;;;;58.63;29.60;;;2.10;95.00;;;;;;5104963;28;20035;-67
2020/12/12 09:25:01;;;;;;;59.10;27.95;;;2.20;94.90;;;;;;5110746;27;20029;-67
2020/12/12 09:27:26;;;;;;;61.25;28.98;;;2.10;94.70;;;;;;5104989;27;20050;-67
2020/12/12 09:29:52;;;;;;;57.22;29.23;;;2.20;94.80;;;;;;5085680;28;20019;-67
2020/12/12 09:32:17;;;;;;;55.03;28.95;;;2.30;94.80;;;;;;5089032;28;20053;-68
2020/12/12 09:34:43;;;;;;;56.00;28.77;;;2.30;94.60;;;;;;5102791;27;20040;-67
2020/12/12 09:37:08;;;;;;;57.42;29.13;;;2.40;94.40;;;;;;5078704;28;20057;-67
2020/12/12 09:39:34;;;;;;;54.85;25.83;;;2.40;94.30;;;;;;5089683;28;20027;-67
2020/12/12 09:42:00;;;;;;;58.78;27.33;;;2.30;94.10;;;;;;5105497;28;20030;-68
2020/12/12 09:44:27;;;;;;;56.42;27.50;;;2.30;94.30;;;;;;5078212;27;20421;-66
2020/12/12 09:46:53;;;;;;;57.60;29.88;;;2.40;94.10;;;;;;5087513;27;20456;-67
2020/12/12 09:49:19;;;;;;;51.95;26.38;;;2.40;94.10;;;;;;5096579;28;20571;-68
2020/12/12 09:51:46;;;;;;;51.53;26.25;;;2.50;94.10;;;;;;5101726;28;20032;-68
2020/12/12 09:54:12;;;;;;;53.63;27.50;;;2.40;93.80;;;;;;5092208;28;20183;-67
2020/12/12 09:56:37;;;;;;;57.83;27.85;;;2.50;94.10;;;;;;5093637;27;20065;-68
2020/12/12 09:59:03;;;;;;;50.70;26.40;;;2.60;94.00;;;;;;5103281;28;20031;-68
2020/12/12 10:01:29;;;;;;;49.33;26.75;;;2.60;93.80;;;;;;5100035;28;20031;-67
2020/12/12 10:03:55;;;;;;;50.33;27.38;;;2.60;93.80;;;;;;5091045;28;20035;-67
2020/12/12 10:06:21;;;;;;;49.72;25.58;;;2.60;93.70;;;;;;5103810;28;20028;-68
2020/12/12 10:08:46;;;;;;;51.90;26.08;;;2.60;93.60;;;;;;5110156;27;20033;-67
2020/12/12 10:11:12;;;;;;;50.10;26.65;;;2.60;93.50;;;;;;5113582;27;20061;-67
2020/12/12 10:13:38;;;;;;;50.97;25.85;;;2.60;93.60;;;;;;5106988;28;20031;-68
2020/12/12 10:16:03;;;;;;;50.33;27.02;;;2.60;93.40;;;;;;5106584;27;20038;-67
2020/12/12 10:18:29;;;;;;;54.55;25.35;;;2.50;93.50;;;;;;5102626;28;20106;-67
2020/12/12 10:20:55;;;;;;;54.28;25.95;;;2.60;93.70;;;;;;5106594;27;20015;-66
2020/12/12 10:23:21;;;;;;;51.03;26.65;;;2.70;93.60;;;;;;5106867;28;20023;-67
2020/12/12 10:25:47;;;;;;;45.65;25.38;;;2.60;93.60;;;;;;5107299;27;20444;-67
2020/12/12 10:28:12;;;;;;;51.22;25.88;;;2.70;93.60;;;;;;5098880;28;20122;-67
2020/12/12 10:30:38;;;;;;;52.35;27.17;;;2.70;93.20;;;;;;5106430;28;20023;-67
2020/12/12 10:33:04;;;;;;;47.63;25.63;;;2.70;93.30;;;;;;5107108;28;20055;-67
2020/12/12 10:35:30;;;;;;;51.08;26.83;;;2.70;93.50;;;;;;5105975;28;20031;-67
2020/12/12 10:37:57;;;;;;;50.25;25.35;;;2.70;93.30;;;;;;5102323;28;20401;-68
2020/12/12 10:40:36;;;;;;;49.35;26.02;;;2.80;93.30;;;;;;5105342;28;20203;-68
2020/12/12 10:43:04;;;;;;;48.90;24.83;;;2.80;93.20;;;;;;5103655;28;20069;-67
2020/12/12 10:45:30;;;;;;;46.67;25.42;;;2.80;93.20;;;;;;5105391;28;20055;-68
2020/12/12 10:47:56;;;;;;;47.60;24.55;;;2.80;93.10;;;;;;5106735;28;20469;-68
2020/12/12 10:50:25;;;;;;;51.25;25.77;;;2.90;93.10;;;;;;5105962;28;20035;-67
2020/12/12 10:52:51;;;;;;;49.00;24.52;;;2.80;93.00;;;;;;5104001;28;20116;-67
2020/12/12 10:55:17;;;;;;;47.83;24.73;;;2.80;93.10;;;;;;5105131;28;20035;-67
2020/12/12 10:57:43;;;;;;;51.35;26.08;;;2.80;93.10;;;;;;5101296;28;20027;-67
2020/12/12 11:00:10;;;;;;;56.65;27.20;;;2.90;93.30;;;;;;5105640;28;20019;-67
2020/12/12 11:02:36;;;;;;;51.40;26.17;;;2.70;93.10;;;;;;5103059;28;20505;-67
2020/12/12 11:05:02;;;;;;;51.33;26.85;;;2.80;93.40;;;;;;5087701;28;20027;-67
2020/12/12 11:07:28;;;;;;;54.33;27.25;;;2.80;93.30;;;;;;5106072;28;20043;-67
2020/12/12 11:09:54;;;;;;;44.65;25.45;;;2.80;93.00;;;;;;5105462;28;20055;-66
2020/12/12 11:12:19;;;;;;;49.38;25.92;;;2.80;93.00;;;;;;5104576;28;20027;-67
2020/12/12 11:14:47;;;;;;;51.92;25.88;;;2.90;93.30;;;;;;5102494;28;20455;-67
2020/12/12 11:17:12;;;;;;;51.05;26.60;;;2.90;93.10;;;;;;5104611;28;20043;-67
2020/12/12 11:19:38;;;;;;;50.13;26.48;;;2.90;93.20;;;;;;5102662;28;20080;-68
2020/12/12 11:22:03;;;;;;;53.03;25.25;;;2.90;92.80;;;;;;5106567;28;20363;-67
2020/12/12 11:24:29;;;;;;;53.85;27.17;;;2.90;92.70;;;;;;5106885;28;20137;-67
2020/12/12 11:26:55;;;;;;;46.35;25.52;;;3.00;92.70;;;;;;5105373;27;20054;-67
2020/12/12 11:29:21;;;;;;;54.22;25.25;;;3.10;92.60;;;;;;5109633;27;20035;-67
2020/12/12 11:31:52;;;;;;;48.10;25.30;;;3.10;92.60;;;;;;5103100;27;20284;-68
2020/12/12 11:34:28;;;;;;;53.65;25.33;;;3.20;92.60;;;;;;5107471;27;20103;-68
2020/12/12 11:39:28;;;;;;;52.03;25.38;;;3.10;92.40;;;;;;5115121;27;20313;-67
2020/12/12 11:47:09;;;;;;;46.00;24.25;;;3.20;92.20;;;;;;5106118;28;20323;-66
2020/12/12 11:49:36;;;;;;;47.50;24.05;;;3.20;92.30;;;;;;5105986;27;20057;-67
2020/12/12 11:52:02;;;;;;;48.28;25.13;;;3.20;92.40;;;;;;5106437;28;20164;-67
2020/12/12 11:54:28;;;;;;;46.55;25.42;;;3.30;92.60;;;;;;5106050;27;20115;-68
2020/12/12 11:56:54;;;;;;;45.17;24.40;;;3.20;92.30;;;;;;5100116;28;20019;-67
2020/12/12 11:59:19;;;;;;;44.55;24.27;;;3.20;92.30;;;;;;5109192;28;20624;-68
2020/12/12 12:01:45;;;;;;;42.60;23.73;;;3.30;92.30;;;;;;5095620;28;20015;-67
2020/12/12 12:04:10;;;;;;;47.65;24.25;;;3.30;92.40;;;;;;5109854;27;20023;-66
2020/12/12 12:06:37;;;;;;;44.30;24.75;;;3.20;92.20;;;;;;5098173;28;20514;-67
2020/12/12 12:11:33;;;;;;;47.88;25.63;;;3.10;92.80;;;;;;5095681;27;20028;-67
2020/12/12 12:14:09;;;;;;;48.35;24.73;;;3.20;93.30;;;;;;5088095;28;20043;-68
2020/12/12 12:16:36;;;;;;;55.70;26.50;;;3.20;93.10;;;;;;5089483;28;20023;-68
2020/12/12 12:19:10;;;;;;;49.10;25.73;;;3.10;93.40;;;;;;5108760;28;20048;-67
2020/12/12 12:21:43;;;;;;;50.65;25.20;;;3.10;93.60;;;;;;5104846;28;20154;-68
2020/12/12 12:24:13;;;;;;;47.80;25.75;;;3.10;93.60;;;;;;5115271;27;20385;-67
2020/12/12 12:26:38;;;;;;;48.20;25.20;;;3.10;93.60;;;;;;5091486;27;20482;-68
2020/12/12 12:29:05;;;;;;;51.90;26.27;;;3.20;94.00;;;;;;5086208;28;20058;-67
2020/12/12 12:31:31;;;;;;;50.95;25.33;;;3.20;93.80;;;;;;5086095;28;20157;-67
2020/12/12 12:33:57;;;;;;;52.35;26.15;;;3.20;94.10;;;;;;5093442;28;20102;-67
2020/12/12 12:36:24;;;;;;;49.92;26.45;;;3.20;93.90;;;;;;5082667;28;20473;-67
2020/12/12 12:38:54;;;;;;;52.80;27.60;;;3.30;93.80;;;;;;5084593;28;20493;-66
2020/12/12 12:41:20;;;;;;;52.03;26.25;;;3.40;94.20;;;;;;5086628;28;20281;-67
2020/12/12 12:43:46;;;;;;;54.13;26.38;;;3.50;93.90;;;;;;5086095;28;20020;-67
2020/12/12 12:46:12;;;;;;;49.35;25.30;;;3.40;93.20;;;;;;5086246;28;20054;-67
2020/12/12 12:53:55;;;;;;;44.97;25.15;;;3.50;93.10;;;;;;5627659;22;20121;-68
2020/12/12 13:06:33;;;;;;;50.40;26.02;;;3.50;93.00;;;;;;5956080;22;20039;-69
2020/12/12 13:16:39;;;;;;;47.10;24.98;;;3.50;92.80;;;;;;5874910;22;20047;-68
2020/12/12 13:21:49;;;;;;;49.60;25.17;;;3.50;92.80;;;;;;5547278;22;20057;-66
2020/12/12 13:32:02;;;;;;;53.53;25.40;;;3.60;92.90;;;;;;5123522;22;20336;-68